sensor_id;sensor_type;location;lat;lon;timestamp;pressure;altitude;pressure_sealevel;temperature
43802;BMP280;29429;51.074;13.764;2024-01-15T00:01:00;98114.88;;;4.03
43802;BMP280;29429;51.074;13.764;2024-01-15T00:03:28;98114.09;;;4.02
43802;BMP280;29429;51.074;13.764;2024-01-15T00:05:55;98108.19;;;4.07
43802;BMP280;29429;51.074;13.764;2024-01-15T00:08:22;98102.94;;;4.07
43802;BMP280;29429;51.074;13.764;2024-01-15T00:10:48;98101.91;;;4.08
43802;BMP280;29429;51.074;13.764;2024-01-15T00:13:15;98102.53;;;4.10
43802;BMP280;29429;51.074;13.764;2024-01-15T00:15:42;98092.97;;;4.09
43802;BMP280;29429;51.074;13.764;2024-01-15T00:18:10;98096.22;;;4.11
43802;BMP280;29429;51.074;13.764;2024-01-15T00:20:37;98098.84;;;4.11
43802;BMP280;29429;51.074;13.764;2024-01-15T00:23:04;98086.09;;;4.14
43802;BMP280;29429;51.074;13.764;2024-01-15T00:25:31;98081.63;;;4.08
43802;BMP280;29429;51.074;13.764;2024-01-15T00:27:59;98094.63;;;4.10
43802;BMP280;29429;51.074;13.764;2024-01-15T00:30:26;98084.06;;;4.10
43802;BMP280;29429;51.074;13.764;2024-01-15T00:32:53;98092.97;;;4.09
43802;BMP280;29429;51.074;13.764;2024-01-15T00:35:20;98077.56;;;4.06
43802;BMP280;29429;51.074;13.764;2024-01-15T00:37:47;98085.47;;;4.06
43802;BMP280;29429;51.074;13.764;2024-01-15T00:40:14;98073.31;;;4.05
43802;BMP280;29429;51.074;13.764;2024-01-15T00:42:41;98073.94;;;4.07
43802;BMP280;29429;51.074;13.764;2024-01-15T00:45:09;98071.47;;;4.05
43802;BMP280;29429;51.074;13.764;2024-01-15T00:47:36;98073.09;;;4.06
43802;BMP280;29429;51.074;13.764;2024-01-15T00:50:03;98078.97;;;4.08
43802;BMP280;29429;51.074;13.764;2024-01-15T00:52:30;98069.66;;;4.06
43802;BMP280;29429;51.074;13.764;2024-01-15T00:54:57;98076.38;;;4.02
43802;BMP280;29429;51.074;13.764;2024-01-15T00:57:24;98061.97;;;3.98
43802;BMP280;29429;51.074;13.764;2024-01-15T00:59:51;98066.22;;;3.99
43802;BMP280;29429;51.074;13.764;2024-01-15T01:02:18;98067.81;;;4.00
43802;BMP280;29429;51.074;13.764;2024-01-15T01:04:45;98060.72;;;4.00
43802;BMP280;29429;51.074;13.764;2024-01-15T01:07:12;98043.50;;;3.98
43802;BMP280;29429;51.074;13.764;2024-01-15T01:09:39;98052.25;;;3.92
43802;BMP280;29429;51.074;13.764;2024-01-15T01:12:06;98059.16;;;3.86
43802;BMP280;29429;51.074;13.764;2024-01-15T01:14:33;98049.19;;;3.82
43802;BMP280;29429;51.074;13.764;2024-01-15T01:17:00;98046.78;;;3.80
43802;BMP280;29429;51.074;13.764;2024-01-15T01:19:27;98042.72;;;3.78
43802;BMP280;29429;51.074;13.764;2024-01-15T01:21:54;98039.03;;;3.79
43802;BMP280;29429;51.074;13.764;2024-01-15T01:24:21;98024.66;;;3.75
43802;BMP280;29429;51.074;13.764;2024-01-15T01:26:48;98033.81;;;3.72
43802;BMP280;29429;51.074;13.764;2024-01-15T01:29:15;98036.00;;;3.68
43802;BMP280;29429;51.074;13.764;2024-01-15T01:31:45;98028.13;;;3.68
43802;BMP280;29429;51.074;13.764;2024-01-15T01:34:16;98023.88;;;3.67
43802;BMP280;29429;51.074;13.764;2024-01-15T01:36:44;98028.94;;;3.69
43802;BMP280;29429;51.074;13.764;2024-01-15T01:39:11;98010.06;;;3.65
43802;BMP280;29429;51.074;13.764;2024-01-15T01:41:39;98020.41;;;3.67
43802;BMP280;29429;51.074;13.764;2024-01-15T01:44:06;98011.91;;;3.65
43802;BMP280;29429;51.074;13.764;2024-01-15T01:46:36;98009.47;;;3.63
43802;BMP280;29429;51.074;13.764;2024-01-15T01:49:08;98022.47;;;3.65
43802;BMP280;29429;51.074;13.764;2024-01-15T01:51:37;98007.44;;;3.65
43802;BMP280;29429;51.074;13.764;2024-01-15T01:54:07;98027.72;;;3.65
43802;BMP280;29429;51.074;13.764;2024-01-15T01:56:35;98020.00;;;3.63
43802;BMP280;29429;51.074;13.764;2024-01-15T01:59:03;98027.72;;;3.65
43802;BMP280;29429;51.074;13.764;2024-01-15T02:01:31;98014.13;;;3.61
43802;BMP280;29429;51.074;13.764;2024-01-15T02:03:59;98009.09;;;3.60
43802;BMP280;29429;51.074;13.764;2024-01-15T02:06:27;98013.94;;;3.63
43802;BMP280;29429;51.074;13.764;2024-01-15T02:08:55;98005.41;;;3.61
43802;BMP280;29429;51.074;13.764;2024-01-15T02:11:22;98004.81;;;3.65
43802;BMP280;29429;51.074;13.764;2024-01-15T02:13:49;98001.78;;;3.62
43802;BMP280;29429;51.074;13.764;2024-01-15T02:16:16;97998.94;;;3.63
43802;BMP280;29429;51.074;13.764;2024-01-15T02:18:46;98004.19;;;3.63
43802;BMP280;29429;51.074;13.764;2024-01-15T02:21:13;98007.44;;;3.59
43802;BMP280;29429;51.074;13.764;2024-01-15T02:23:40;98009.28;;;3.58
43802;BMP280;29429;51.074;13.764;2024-01-15T02:26:08;98000.97;;;3.61
43802;BMP280;29429;51.074;13.764;2024-01-15T02:28:35;97998.13;;;3.56
43802;BMP280;29429;51.074;13.764;2024-01-15T02:31:03;97991.63;;;3.52
43802;BMP280;29429;51.074;13.764;2024-01-15T02:33:30;97992.25;;;3.54
43802;BMP280;29429;51.074;13.764;2024-01-15T02:35:57;97992.88;;;3.56
43802;BMP280;29429;51.074;13.764;2024-01-15T02:38:24;97989.19;;;3.57
43802;BMP280;29429;51.074;13.764;2024-01-15T02:40:51;97985.38;;;3.53
43802;BMP280;29429;51.074;13.764;2024-01-15T02:43:18;97984.75;;;3.51
43802;BMP280;29429;51.074;13.764;2024-01-15T02:45:46;97973.00;;;3.54
43802;BMP280;29429;51.074;13.764;2024-01-15T02:48:14;97975.81;;;3.52
43802;BMP280;29429;51.074;13.764;2024-01-15T02:50:41;97970.34;;;3.47
43802;BMP280;29429;51.074;13.764;2024-01-15T02:53:08;97971.78;;;3.50
43802;BMP280;29429;51.074;13.764;2024-01-15T02:55:35;97971.41;;;3.46
43802;BMP280;29429;51.074;13.764;2024-01-15T02:58:03;97970.56;;;3.52
43802;BMP280;29429;51.074;13.764;2024-01-15T03:00:30;97963.28;;;3.48
43802;BMP280;29429;51.074;13.764;2024-01-15T03:02:57;97962.47;;;3.47
43802;BMP280;29429;51.074;13.764;2024-01-15T03:05:24;97970.97;;;3.43
43802;BMP280;29429;51.074;13.764;2024-01-15T03:07:51;97955.78;;;3.38
43802;BMP280;29429;51.074;13.764;2024-01-15T03:10:18;97951.13;;;3.40
43802;BMP280;29429;51.074;13.764;2024-01-15T03:12:45;97950.13;;;3.41
43802;BMP280;29429;51.074;13.764;2024-01-15T03:15:12;97957.81;;;3.43
43802;BMP280;29429;51.074;13.764;2024-01-15T03:17:41;97959.22;;;3.45
43802;BMP280;29429;51.074;13.764;2024-01-15T03:20:10;97966.72;;;3.42
43802;BMP280;29429;51.074;13.764;2024-01-15T03:22:37;97961.44;;;3.42
43802;BMP280;29429;51.074;13.764;2024-01-15T03:25:06;97952.31;;;3.44
43802;BMP280;29429;51.074;13.764;2024-01-15T03:27:33;97955.19;;;3.43
43802;BMP280;29429;51.074;13.764;2024-01-15T03:30:00;97965.31;;;3.46
43802;BMP280;29429;51.074;13.764;2024-01-15T03:32:29;97978.66;;;3.44
43802;BMP280;29429;51.074;13.764;2024-01-15T03:34:56;97962.66;;;3.39
43802;BMP280;29429;51.074;13.764;2024-01-15T03:37:23;97977.47;;;3.40
43802;BMP280;29429;51.074;13.764;2024-01-15T03:39:49;97975.44;;;3.36
43802;BMP280;29429;51.074;13.764;2024-01-15T03:42:17;97978.66;;;3.31
43802;BMP280;29429;51.074;13.764;2024-01-15T03:44:44;97988.81;;;3.28
43802;BMP280;29429;51.074;13.764;2024-01-15T03:47:10;97995.31;;;3.25
43802;BMP280;29429;51.074;13.764;2024-01-15T03:49:37;97990.03;;;3.25
43802;BMP280;29429;51.074;13.764;2024-01-15T03:52:05;97991.81;;;3.18
43802;BMP280;29429;51.074;13.764;2024-01-15T03:54:32;97976.66;;;3.20
43802;BMP280;29429;51.074;13.764;2024-01-15T03:56:59;97976.03;;;3.18
43802;BMP280;29429;51.074;13.764;2024-01-15T03:59:26;97981.50;;;3.23
43802;BMP280;29429;51.074;13.764;2024-01-15T04:01:53;97977.06;;;3.24
43802;BMP280;29429;51.074;13.764;2024-01-15T04:04:20;97977.06;;;3.24
43802;BMP280;29429;51.074;13.764;2024-01-15T04:06:47;97978.66;;;3.18
43802;BMP280;29429;51.074;13.764;2024-01-15T04:09:14;97973.00;;;3.15
43802;BMP280;29429;51.074;13.764;2024-01-15T04:11:42;97974.22;;;3.12
43802;BMP280;29429;51.074;13.764;2024-01-15T04:14:08;97983.53;;;3.08
43802;BMP280;29429;51.074;13.764;2024-01-15T04:16:37;97973.41;;;3.12
43802;BMP280;29429;51.074;13.764;2024-01-15T04:19:04;97977.84;;;3.11
43802;BMP280;29429;51.074;13.764;2024-01-15T04:21:31;97968.31;;;3.10
43802;BMP280;29429;51.074;13.764;2024-01-15T04:23:59;97963.06;;;3.03
43802;BMP280;29429;51.074;13.764;2024-01-15T04:26:25;97964.28;;;3.01
43802;BMP280;29429;51.074;13.764;2024-01-15T04:28:52;97968.72;;;3.00
43802;BMP280;29429;51.074;13.764;2024-01-15T04:31:26;97959.41;;;2.98
43802;BMP280;29429;51.074;13.764;2024-01-15T04:33:56;97968.53;;;2.95
43802;BMP280;29429;51.074;13.764;2024-01-15T04:36:23;97954.94;;;2.92
43802;BMP280;29429;51.074;13.764;2024-01-15T04:38:50;97954.34;;;2.90
43802;BMP280;29429;51.074;13.764;2024-01-15T04:41:17;97950.72;;;2.91
43802;BMP280;29429;51.074;13.764;2024-01-15T04:43:44;97953.94;;;2.93
43802;BMP280;29429;51.074;13.764;2024-01-15T04:46:11;97951.72;;;2.90
43802;BMP280;29429;51.074;13.764;2024-01-15T04:48:38;97947.88;;;2.86
43802;BMP280;29429;51.074;13.764;2024-01-15T04:51:08;97954.13;;;2.85
43802;BMP280;29429;51.074;13.764;2024-01-15T04:53:35;97958.59;;;2.78
43802;BMP280;29429;51.074;13.764;2024-01-15T04:56:02;97940.97;;;2.72
43802;BMP280;29429;51.074;13.764;2024-01-15T04:58:29;97963.56;;;2.60
43802;BMP280;29429;51.074;13.764;2024-01-15T05:00:57;97948.63;;;2.54
43802;BMP280;29429;51.074;13.764;2024-01-15T05:03:24;97947.75;;;2.40
43802;BMP280;29429;51.074;13.764;2024-01-15T05:05:51;97958.63;;;2.30
43802;BMP280;29429;51.074;13.764;2024-01-15T05:08:18;97964.69;;;2.24
43802;BMP280;29429;51.074;13.764;2024-01-15T05:10:45;97958.56;;;2.17
43802;BMP280;29429;51.074;13.764;2024-01-15T05:13:12;97968.06;;;2.12
43802;BMP280;29429;51.074;13.764;2024-01-15T05:15:39;97971.03;;;2.02
43802;BMP280;29429;51.074;13.764;2024-01-15T05:18:06;97974.91;;;2.06
43802;BMP280;29429;51.074;13.764;2024-01-15T05:20:34;97975.72;;;2.07
43802;BMP280;29429;51.074;13.764;2024-01-15T05:23:01;97986.44;;;2.05
43802;BMP280;29429;51.074;13.764;2024-01-15T05:25:28;97978.75;;;2.10
43802;BMP280;29429;51.074;13.764;2024-01-15T05:27:55;97993.78;;;2.16
43802;BMP280;29429;51.074;13.764;2024-01-15T05:30:23;97984.91;;;2.24
43802;BMP280;29429;51.074;13.764;2024-01-15T05:32:50;97983.31;;;2.29
43802;BMP280;29429;51.074;13.764;2024-01-15T05:35:17;97986.38;;;2.33
43802;BMP280;29429;51.074;13.764;2024-01-15T05:37:45;97975.66;;;2.34
43802;BMP280;29429;51.074;13.764;2024-01-15T05:40:12;97981.13;;;2.33
43802;BMP280;29429;51.074;13.764;2024-01-15T05:42:41;97976.03;;;2.25
43802;BMP280;29429;51.074;13.764;2024-01-15T05:45:08;97968.91;;;2.19
43802;BMP280;29429;51.074;13.764;2024-01-15T05:47:36;97979.38;;;2.12
43802;BMP280;29429;51.074;13.764;2024-01-15T05:50:03;97982.00;;;2.12
43802;BMP280;29429;51.074;13.764;2024-01-15T05:52:31;97990.53;;;2.21
43802;BMP280;29429;51.074;13.764;2024-01-15T05:54:58;97976.41;;;2.28
43802;BMP280;29429;51.074;13.764;2024-01-15T05:57:25;97985.56;;;2.32
43802;BMP280;29429;51.074;13.764;2024-01-15T05:59:53;97989.78;;;2.33
43802;BMP280;29429;51.074;13.764;2024-01-15T06:02:20;97977.88;;;2.37
43802;BMP280;29429;51.074;13.764;2024-01-15T06:04:47;97984.97;;;2.37
43802;BMP280;29429;51.074;13.764;2024-01-15T06:07:14;97975.25;;;2.37
43802;BMP280;29429;51.074;13.764;2024-01-15T06:09:41;97971.81;;;2.37
43802;BMP280;29429;51.074;13.764;2024-01-15T06:12:08;97967.16;;;2.39
43802;BMP280;29429;51.074;13.764;2024-01-15T06:14:36;97965.56;;;2.44
43802;BMP280;29429;51.074;13.764;2024-01-15T06:17:03;97969.00;;;2.52
43802;BMP280;29429;51.074;13.764;2024-01-15T06:19:30;97957.09;;;2.56
43802;BMP280;29429;51.074;13.764;2024-01-15T06:21:57;97951.25;;;2.60
43802;BMP280;29429;51.074;13.764;2024-01-15T06:24:24;97951.25;;;2.60
43802;BMP280;29429;51.074;13.764;2024-01-15T06:26:51;97945.81;;;2.62
43802;BMP280;29429;51.074;13.764;2024-01-15T06:29:18;97943.56;;;2.65
43802;BMP280;29429;51.074;13.764;2024-01-15T06:31:45;97947.81;;;2.66
43802;BMP280;29429;51.074;13.764;2024-01-15T06:34:12;97943.38;;;2.67
43802;BMP280;29429;51.074;13.764;2024-01-15T06:36:39;97940.53;;;2.62
43802;BMP280;29429;51.074;13.764;2024-01-15T06:39:06;97942.53;;;2.60
43802;BMP280;29429;51.074;13.764;2024-01-15T06:41:34;97953.47;;;2.63
43802;BMP280;29429;51.074;13.764;2024-01-15T06:44:01;97944.38;;;2.59
43802;BMP280;29429;51.074;13.764;2024-01-15T06:46:27;97950.03;;;2.63
43802;BMP280;29429;51.074;13.764;2024-01-15T06:48:54;97950.66;;;2.65
43802;BMP280;29429;51.074;13.764;2024-01-15T06:51:22;97943.56;;;2.59
43802;BMP280;29429;51.074;13.764;2024-01-15T06:53:49;97943.78;;;2.64
43802;BMP280;29429;51.074;13.764;2024-01-15T06:56:16;97956.09;;;2.63
43802;BMP280;29429;51.074;13.764;2024-01-15T06:58:42;97944.16;;;2.61
43802;BMP280;29429;51.074;13.764;2024-01-15T07:01:09;97946.59;;;2.62
43802;BMP280;29429;51.074;13.764;2024-01-15T07:03:37;97960.38;;;2.71
43802;BMP280;29429;51.074;13.764;2024-01-15T07:06:05;97955.13;;;2.71
43802;BMP280;29429;51.074;13.764;2024-01-15T07:08:32;97953.50;;;2.70
43802;BMP280;29429;51.074;13.764;2024-01-15T07:10:59;97941.56;;;2.67
43802;BMP280;29429;51.074;13.764;2024-01-15T07:13:26;97953.31;;;2.65
43802;BMP280;29429;51.074;13.764;2024-01-15T07:15:52;97967.28;;;2.72
43802;BMP280;29429;51.074;13.764;2024-01-15T07:18:20;97971.31;;;2.74
43802;BMP280;29429;51.074;13.764;2024-01-15T07:20:47;97974.13;;;2.73
43802;BMP280;29429;51.074;13.764;2024-01-15T07:23:14;97978.59;;;2.72
43802;BMP280;29429;51.074;13.764;2024-01-15T07:25:41;97993.41;;;2.80
43802;BMP280;29429;51.074;13.764;2024-01-15T07:28:08;97993.19;;;2.81
43802;BMP280;29429;51.074;13.764;2024-01-15T07:30:35;98003.72;;;2.75
43802;BMP280;29429;51.074;13.764;2024-01-15T07:33:05;98004.72;;;2.74
43802;BMP280;29429;51.074;13.764;2024-01-15T07:35:32;98000.06;;;2.76
43802;BMP280;29429;51.074;13.764;2024-01-15T07:37:59;98004.09;;;2.78
43802;BMP280;29429;51.074;13.764;2024-01-15T07:40:26;98000.06;;;2.76
43802;BMP280;29429;51.074;13.764;2024-01-15T07:42:53;97999.25;;;2.75
43802;BMP280;29429;51.074;13.764;2024-01-15T07:45:20;97998.03;;;2.71
43802;BMP280;29429;51.074;13.764;2024-01-15T07:47:47;97998.84;;;2.72
43802;BMP280;29429;51.074;13.764;2024-01-15T07:50:16;98000.03;;;2.69
43802;BMP280;29429;51.074;13.764;2024-01-15T07:52:43;98002.47;;;2.71
43802;BMP280;29429;51.074;13.764;2024-01-15T07:55:10;97995.19;;;2.73
43802;BMP280;29429;51.074;13.764;2024-01-15T07:57:37;97996.03;;;2.80
43802;BMP280;29429;51.074;13.764;2024-01-15T08:00:05;97980.25;;;2.80
43802;BMP280;29429;51.074;13.764;2024-01-15T08:02:32;97990.78;;;2.80
43802;BMP280;29429;51.074;13.764;2024-01-15T08:05:03;98007.34;;;2.74
43802;BMP280;29429;51.074;13.764;2024-01-15T08:07:30;97988.31;;;2.72
43802;BMP280;29429;51.074;13.764;2024-01-15T08:09:57;97991.38;;;2.75
43802;BMP280;29429;51.074;13.764;2024-01-15T08:12:25;98001.09;;;2.75
43802;BMP280;29429;51.074;13.764;2024-01-15T08:14:52;97982.28;;;2.78
43802;BMP280;29429;51.074;13.764;2024-01-15T08:17:19;97995.81;;;2.81
43802;BMP280;29429;51.074;13.764;2024-01-15T08:19:46;98001.28;;;2.80
43802;BMP280;29429;51.074;13.764;2024-01-15T08:22:13;97999.25;;;2.75
43802;BMP280;29429;51.074;13.764;2024-01-15T08:24:40;98002.06;;;2.74
43802;BMP280;29429;51.074;13.764;2024-01-15T08:27:07;98000.06;;;2.76
43802;BMP280;29429;51.074;13.764;2024-01-15T08:29:34;98012.22;;;2.77
43802;BMP280;29429;51.074;13.764;2024-01-15T08:32:01;98015.06;;;2.75
43802;BMP280;29429;51.074;13.764;2024-01-15T08:34:29;97991.94;;;2.71
43802;BMP280;29429;51.074;13.764;2024-01-15T08:36:58;98012.59;;;2.74
43802;BMP280;29429;51.074;13.764;2024-01-15T08:39:25;98010.19;;;2.72
43802;BMP280;29429;51.074;13.764;2024-01-15T08:41:52;98001.88;;;2.69
43802;BMP280;29429;51.074;13.764;2024-01-15T08:44:18;98012.38;;;2.69
43802;BMP280;29429;51.074;13.764;2024-01-15T08:46:45;97982.63;;;2.68
43802;BMP280;29429;51.074;13.764;2024-01-15T08:49:12;98012.59;;;2.74
43802;BMP280;29429;51.074;13.764;2024-01-15T08:51:40;98000.88;;;2.76
43802;BMP280;29429;51.074;13.764;2024-01-15T08:54:06;97996.22;;;2.72
43802;BMP280;29429;51.074;13.764;2024-01-15T08:56:35;98010.56;;;2.76
43802;BMP280;29429;51.074;13.764;2024-01-15T08:59:02;98000.06;;;2.76
43802;BMP280;29429;51.074;13.764;2024-01-15T09:01:29;97993.19;;;2.75
43802;BMP280;29429;51.074;13.764;2024-01-15T09:03:56;98009.78;;;2.82
43802;BMP280;29429;51.074;13.764;2024-01-15T09:06:23;98011.44;;;2.89
43802;BMP280;29429;51.074;13.764;2024-01-15T09:08:50;98007.41;;;2.93
43802;BMP280;29429;51.074;13.764;2024-01-15T09:11:17;98000.72;;;2.91
43802;BMP280;29429;51.074;13.764;2024-01-15T09:13:44;98011.47;;;2.96
43802;BMP280;29429;51.074;13.764;2024-01-15T09:16:11;98009.63;;;3.03
43802;BMP280;29429;51.074;13.764;2024-01-15T09:18:38;98010.88;;;3.14
43802;BMP280;29429;51.074;13.764;2024-01-15T09:21:06;97991.22;;;3.29
43802;BMP280;29429;51.074;13.764;2024-01-15T09:23:33;97997.31;;;3.36
43802;BMP280;29429;51.074;13.764;2024-01-15T09:26:00;98006.44;;;3.40
43802;BMP280;29429;51.074;13.764;2024-01-15T09:28:27;97998.13;;;3.43
43802;BMP280;29429;51.074;13.764;2024-01-15T09:30:54;97984.75;;;3.51
43802;BMP280;29429;51.074;13.764;2024-01-15T09:33:21;98001.16;;;3.53
43802;BMP280;29429;51.074;13.764;2024-01-15T09:35:48;98007.66;;;3.64
43802;BMP280;29429;51.074;13.764;2024-01-15T09:38:16;98008.03;;;3.74
43802;BMP280;29429;51.074;13.764;2024-01-15T09:40:46;97995.66;;;3.88
43802;BMP280;29429;51.074;13.764;2024-01-15T09:43:14;98001.72;;;4.01
43802;BMP280;29429;51.074;13.764;2024-01-15T09:45:43;98011.00;;;4.17
43802;BMP280;29429;51.074;13.764;2024-01-15T09:48:11;98004.91;;;4.23
43802;BMP280;29429;51.074;13.764;2024-01-15T09:50:39;98005.09;;;4.28
43802;BMP280;29429;51.074;13.764;2024-01-15T09:53:06;98005.09;;;4.28
43802;BMP280;29429;51.074;13.764;2024-01-15T09:55:33;97980.97;;;4.31
43802;BMP280;29429;51.074;13.764;2024-01-15T09:58:01;97989.88;;;4.30
43802;BMP280;29429;51.074;13.764;2024-01-15T10:00:29;97994.13;;;4.31
43802;BMP280;29429;51.074;13.764;2024-01-15T10:03:00;97992.28;;;4.38
43802;BMP280;29429;51.074;13.764;2024-01-15T10:05:27;97993.09;;;4.39
43802;BMP280;29429;51.074;13.764;2024-01-15T10:07:57;97983.72;;;4.43
43802;BMP280;29429;51.074;13.764;2024-01-15T10:10:24;97997.97;;;4.42
43802;BMP280;29429;51.074;13.764;2024-01-15T10:12:51;97977.84;;;4.47
43802;BMP280;29429;51.074;13.764;2024-01-15T10:15:22;97978.78;;;4.59
43802;BMP280;29429;51.074;13.764;2024-01-15T10:17:50;97988.53;;;4.65
43802;BMP280;29429;51.074;13.764;2024-01-15T10:20:17;97984.06;;;4.66
43802;BMP280;29429;51.074;13.764;2024-01-15T10:22:45;97977.78;;;4.60
43802;BMP280;29429;51.074;13.764;2024-01-15T10:25:14;97979.97;;;4.63
43802;BMP280;29429;51.074;13.764;2024-01-15T10:27:41;97970.88;;;4.59
43802;BMP280;29429;51.074;13.764;2024-01-15T10:30:10;97970.66;;;4.61
43802;BMP280;29429;51.074;13.764;2024-01-15T10:32:37;97964.84;;;4.52
43802;BMP280;29429;51.074;13.764;2024-01-15T10:35:07;97977.38;;;4.57
43802;BMP280;29429;51.074;13.764;2024-01-15T10:37:34;97971.06;;;4.64
43802;BMP280;29429;51.074;13.764;2024-01-15T10:40:02;97975.50;;;4.70
43802;BMP280;29429;51.074;13.764;2024-01-15T10:42:32;97962.06;;;4.72
43802;BMP280;29429;51.074;13.764;2024-01-15T10:44:59;97964.59;;;4.60
43802;BMP280;29429;51.074;13.764;2024-01-15T10:47:27;97962.38;;;4.57
43802;BMP280;29429;51.074;13.764;2024-01-15T10:49:54;97965.44;;;4.54
43802;BMP280;29429;51.074;13.764;2024-01-15T10:52:22;97966.66;;;4.45
43802;BMP280;29429;51.074;13.764;2024-01-15T10:54:50;97981.09;;;4.43
43802;BMP280;29429;51.074;13.764;2024-01-15T10:57:18;97962.66;;;4.36
43802;BMP280;29429;51.074;13.764;2024-01-15T10:59:47;97963.69;;;4.35
43802;BMP280;29429;51.074;13.764;2024-01-15T11:02:15;97971.19;;;4.38
43802;BMP280;29429;51.074;13.764;2024-01-15T11:04:42;97967.94;;;4.29
43802;BMP280;29429;51.074;13.764;2024-01-15T11:07:10;97971.81;;;4.27
43802;BMP280;29429;51.074;13.764;2024-01-15T11:09:39;97979.59;;;4.15
43802;BMP280;29429;51.074;13.764;2024-01-15T11:12:12;97979.97;;;4.19
43802;BMP280;29429;51.074;13.764;2024-01-15T11:14:42;97974.69;;;4.19
43802;BMP280;29429;51.074;13.764;2024-01-15T11:17:13;97985.88;;;4.14
43802;BMP280;29429;51.074;13.764;2024-01-15T11:19:48;97976.72;;;4.17
43802;BMP280;29429;51.074;13.764;2024-01-15T11:25:12;97963.19;;;4.07
43802;BMP280;29429;51.074;13.764;2024-01-15T11:27:45;97979.81;;;4.01
43802;BMP280;29429;51.074;13.764;2024-01-15T11:30:24;97974.94;;;3.98
43802;BMP280;29429;51.074;13.764;2024-01-15T11:32:52;97953.69;;;3.93
43802;BMP280;29429;51.074;13.764;2024-01-15T11:35:19;97958.31;;;4.04
43802;BMP280;29429;51.074;13.764;2024-01-15T11:42:59;97951.13;;;4.24
43802;BMP280;29429;51.074;13.764;2024-01-15T11:45:27;97950.72;;;4.34
43802;BMP280;29429;51.074;13.764;2024-01-15T11:48:14;97947.19;;;4.46
43802;BMP280;29429;51.074;13.764;2024-01-15T11:50:48;97943.66;;;4.65
43802;BMP280;29429;51.074;13.764;2024-01-15T11:53:43;97942.13;;;4.82
43802;BMP280;29429;51.074;13.764;2024-01-15T11:56:15;97932.50;;;4.95
43802;BMP280;29429;51.074;13.764;2024-01-15T11:58:45;97929.88;;;4.95
43802;BMP280;29429;51.074;13.764;2024-01-15T12:01:13;97937.94;;;5.00
43802;BMP280;29429;51.074;13.764;2024-01-15T12:03:40;97932.09;;;4.98
43802;BMP280;29429;51.074;13.764;2024-01-15T12:06:09;97935.47;;;5.05
43802;BMP280;29429;51.074;13.764;2024-01-15T12:08:37;97931.31;;;5.15
43802;BMP280;29429;51.074;13.764;2024-01-15T12:11:10;97946.94;;;5.17
43802;BMP280;29429;51.074;13.764;2024-01-15T12:13:40;97937.47;;;5.09
43802;BMP280;29429;51.074;13.764;2024-01-15T12:16:07;97944.41;;;5.04
43802;BMP280;29429;51.074;13.764;2024-01-15T12:18:34;97939.56;;;5.01
43802;BMP280;29429;51.074;13.764;2024-01-15T12:21:04;97938.78;;;4.93
43802;BMP280;29429;51.074;13.764;2024-01-15T12:23:31;97929.72;;;4.83
43802;BMP280;29429;51.074;13.764;2024-01-15T12:25:58;97929.94;;;4.81
43802;BMP280;29429;51.074;13.764;2024-01-15T12:28:27;97938.63;;;4.88
43802;BMP280;29429;51.074;13.764;2024-01-15T12:30:55;97928.06;;;4.88
43802;BMP280;29429;51.074;13.764;2024-01-15T12:33:23;97931.69;;;4.94
43802;BMP280;29429;51.074;13.764;2024-01-15T12:35:53;97926.19;;;4.96
43802;BMP280;29429;51.074;13.764;2024-01-15T12:38:20;97931.88;;;4.92
43802;BMP280;29429;51.074;13.764;2024-01-15T12:40:48;97922.78;;;4.88
43802;BMP280;29429;51.074;13.764;2024-01-15T12:43:15;97923.00;;;4.87
43802;BMP280;29429;51.074;13.764;2024-01-15T12:45:42;97929.63;;;4.96
43802;BMP280;29429;51.074;13.764;2024-01-15T12:48:10;97931.63;;;5.01
43802;BMP280;29429;51.074;13.764;2024-01-15T12:50:37;97936.31;;;4.99
43802;BMP280;29429;51.074;13.764;2024-01-15T12:53:04;97932.28;;;4.96
43802;BMP280;29429;51.074;13.764;2024-01-15T12:55:31;97934.53;;;4.92
43802;BMP280;29429;51.074;13.764;2024-01-15T12:57:58;97917.28;;;4.90
43802;BMP280;29429;51.074;13.764;2024-01-15T13:00:25;97926.06;;;4.84
43802;BMP280;29429;51.074;13.764;2024-01-15T13:02:53;97935.22;;;4.81
43802;BMP280;29429;51.074;13.764;2024-01-15T13:05:22;97936.66;;;4.77
43802;BMP280;29429;51.074;13.764;2024-01-15T13:07:50;97924.31;;;4.71
43802;BMP280;29429;51.074;13.764;2024-01-15T13:10:17;97928.44;;;4.61
43802;BMP280;29429;51.074;13.764;2024-01-15T13:12:44;97924.38;;;4.58
43802;BMP280;29429;51.074;13.764;2024-01-15T13:15:12;97923.63;;;4.51
43802;BMP280;29429;51.074;13.764;2024-01-15T13:17:42;97935.38;;;4.55
43802;BMP280;29429;51.074;13.764;2024-01-15T13:20:11;97943.72;;;4.52
43802;BMP280;29429;51.074;13.764;2024-01-15T13:22:38;97937.81;;;4.50
43802;BMP280;29429;51.074;13.764;2024-01-15T13:25:08;97937.63;;;4.52
43802;BMP280;29429;51.074;13.764;2024-01-15T13:27:36;97934.56;;;4.55
43802;BMP280;29429;51.074;13.764;2024-01-15T13:30:05;97935.38;;;4.55
43802;BMP280;29429;51.074;13.764;2024-01-15T13:32:35;97929.66;;;4.58
43802;BMP280;29429;51.074;13.764;2024-01-15T13:35:02;97932.09;;;4.60
43802;BMP280;29429;51.074;13.764;2024-01-15T13:37:32;97949.75;;;4.59
43802;BMP280;29429;51.074;13.764;2024-01-15T13:39:59;97945.94;;;4.55
43802;BMP280;29429;51.074;13.764;2024-01-15T13:42:26;97952.00;;;4.56
43802;BMP280;29429;51.074;13.764;2024-01-15T13:44:54;97944.34;;;4.48
43802;BMP280;29429;51.074;13.764;2024-01-15T13:47:21;97964.66;;;4.41
43802;BMP280;29429;51.074;13.764;2024-01-15T13:49:48;97978.69;;;4.35
43802;BMP280;29429;51.074;13.764;2024-01-15T13:52:16;97974.88;;;4.30
43802;BMP280;29429;51.074;13.764;2024-01-15T13:54:43;97987.66;;;4.27
43802;BMP280;29429;51.074;13.764;2024-01-15T13:57:17;97997.81;;;4.23
43802;BMP280;29429;51.074;13.764;2024-01-15T13:59:45;97994.38;;;4.16
43802;BMP280;29429;51.074;13.764;2024-01-15T14:02:13;97999.91;;;4.02
43802;BMP280;29429;51.074;13.764;2024-01-15T14:04:47;98006.63;;;3.91
43802;BMP280;29429;51.074;13.764;2024-01-15T14:07:16;97996.06;;;3.85
43802;BMP280;29429;51.074;13.764;2024-01-15T14:09:44;97987.78;;;3.75
43802;BMP280;29429;51.074;13.764;2024-01-15T14:12:11;97995.28;;;3.71
43802;BMP280;29429;51.074;13.764;2024-01-15T14:14:38;97990.81;;;3.58
43802;BMP280;29429;51.074;13.764;2024-01-15T14:17:06;98007.44;;;3.52
43802;BMP280;29429;51.074;13.764;2024-01-15T14:19:33;97999.72;;;3.57